createdAt,value
2018-07-31T00:02:47.089Z,4.00
2018-07-31T00:06:50.837Z,4.83
2018-07-31T00:10:54.632Z,3.20
2018-07-31T00:14:58.491Z,5.70
2018-07-31T00:19:02.416Z,3.97
2018-07-31T00:23:06.149Z,3.80
2018-07-31T00:27:09.735Z,4.23
2018-07-31T00:31:13.251Z,3.70
2018-07-31T00:35:17.043Z,5.13
2018-07-31T00:39:20.696Z,3.30
2018-07-31T00:43:24.356Z,3.77
2018-07-31T00:47:28.071Z,3.47
2018-07-31T00:51:31.989Z,4.60
2018-07-31T00:55:35.872Z,4.57
2018-07-31T00:59:39.560Z,5.03
2018-07-31T01:03:43.319Z,4.17
2018-07-31T01:07:47.537Z,6.83
2018-07-31T01:11:57.863Z,4.67
2018-07-31T01:16:01.864Z,4.40
2018-07-31T01:20:05.741Z,4.40
2018-07-31T01:24:09.903Z,4.93
2018-07-31T01:28:13.756Z,5.23
2018-07-31T01:32:17.687Z,4.50
2018-07-31T01:36:21.354Z,4.77
2018-07-31T01:40:24.963Z,4.30
2018-07-31T01:44:28.713Z,4.63
2018-07-31T01:48:32.412Z,5.23
2018-07-31T01:52:35.928Z,7.50
2018-07-31T01:56:39.697Z,4.67
2018-07-31T02:00:43.339Z,5.50
2018-07-31T02:04:47.137Z,4.40
2018-07-31T02:08:50.921Z,5.33
2018-07-31T02:12:54.506Z,5.60
2018-07-31T02:16:58.223Z,5.00
2018-07-31T02:21:02.128Z,5.43
2018-07-31T02:25:06.005Z,5.47
2018-07-31T02:29:09.789Z,5.10
2018-07-31T02:33:13.518Z,4.70
2018-07-31T02:37:17.457Z,4.93
2018-07-31T02:41:21.320Z,6.40
2018-07-31T02:45:26.044Z,6.27
2018-07-31T02:49:29.692Z,5.70
2018-07-31T02:53:33.554Z,4.30
2018-07-31T02:57:37.672Z,4.40
2018-07-31T03:01:41.545Z,2.70
2018-07-31T03:05:45.179Z,4.93
2018-07-31T03:09:49.125Z,5.30
2018-07-31T03:13:53.076Z,5.03
2018-07-31T03:17:56.944Z,4.70
2018-07-31T03:22:00.584Z,5.77
2018-07-31T03:26:04.138Z,5.50
2018-07-31T03:30:07.869Z,5.57
2018-07-31T03:34:11.632Z,6.70
2018-07-31T03:38:15.158Z,5.47
2018-07-31T03:42:18.801Z,6.50
2018-07-31T03:46:22.325Z,5.40
2018-07-31T03:50:26.614Z,6.40
2018-07-31T03:54:30.129Z,7.10
2018-07-31T03:58:33.675Z,7.33
2018-07-31T04:02:37.399Z,7.10
2018-07-31T04:06:41.299Z,7.10
2018-07-31T04:10:45.130Z,7.53
2018-07-31T04:14:48.900Z,7.60
2018-07-31T04:18:52.527Z,7.50
2018-07-31T04:22:56.180Z,8.37
2018-07-31T04:26:59.905Z,7.93
2018-07-31T04:31:03.794Z,8.17
2018-07-31T04:35:07.415Z,7.37
2018-07-31T04:39:12.635Z,6.70
2018-07-31T04:43:16.508Z,5.77
2018-07-31T04:47:20.197Z,5.70
2018-07-31T04:51:23.767Z,5.37
2018-07-31T04:55:27.487Z,6.03
2018-07-31T04:59:31.119Z,5.27
2018-07-31T05:03:34.668Z,5.67
2018-07-31T05:07:39.420Z,5.30
2018-07-31T05:11:43.088Z,5.47
2018-07-31T05:15:46.606Z,5.93
2018-07-31T05:19:50.147Z,4.90
2018-07-31T05:23:53.684Z,5.47
2018-07-31T05:27:57.548Z,7.20
2018-07-31T05:32:01.396Z,5.73
2018-07-31T05:36:05.260Z,5.33
2018-07-31T05:40:09.327Z,5.80
2018-07-31T05:44:13.167Z,5.40
2018-07-31T05:48:17.020Z,6.00
2018-07-31T05:52:20.695Z,6.40
2018-07-31T05:56:24.676Z,4.57
2018-07-31T06:00:28.400Z,5.20
2018-07-31T06:04:32.129Z,6.40
2018-07-31T06:08:35.976Z,5.30
2018-07-31T06:12:39.526Z,5.40
2018-07-31T06:16:43.249Z,4.57
2018-07-31T06:20:46.896Z,6.13
2018-07-31T06:24:50.455Z,4.90
2018-07-31T06:28:54.051Z,8.03
2018-07-31T06:32:57.628Z,5.30
2018-07-31T06:37:01.336Z,6.47
2018-07-31T06:41:05.008Z,5.93
2018-07-31T06:45:08.512Z,5.37
2018-07-31T06:49:12.380Z,4.60
2018-07-31T06:53:16.304Z,4.43
2018-07-31T06:57:20.099Z,7.67
2018-07-31T07:01:23.723Z,4.13
2018-07-31T07:05:27.650Z,3.20
2018-07-31T07:09:31.468Z,8.63
2018-07-31T07:13:35.109Z,5.83
2018-07-31T07:17:38.710Z,4.67
2018-07-31T07:21:42.275Z,4.23
2018-07-31T07:25:46.007Z,4.70
2018-07-31T07:29:51.983Z,8.10
2018-07-31T07:33:55.735Z,6.07
2018-07-31T07:37:59.156Z,5.13
2018-07-31T07:42:02.895Z,6.30
2018-07-31T07:46:06.578Z,6.10
2018-07-31T07:50:10.111Z,4.90
2018-07-31T07:54:13.914Z,5.90
2018-07-31T07:58:17.247Z,6.03
2018-07-31T08:02:21.011Z,2.20
2018-07-31T08:06:24.641Z,3.63
2018-07-31T08:10:28.512Z,5.00
2018-07-31T08:14:32.647Z,2.10
2018-07-31T08:18:36.548Z,1.93
2018-07-31T08:22:40.213Z,2.57
2018-07-31T08:26:43.744Z,3.60
2018-07-31T08:30:47.261Z,4.53
2018-07-31T08:34:50.829Z,2.20
2018-07-31T08:38:54.339Z,3.13
2018-07-31T08:42:57.907Z,3.07
2018-07-31T08:47:01.644Z,2.63
2018-07-31T08:51:05.372Z,8.97
2018-07-31T08:55:08.847Z,1.63
2018-07-31T08:59:12.613Z,4.30
2018-07-31T09:03:16.471Z,2.30
2018-07-31T09:07:20.148Z,4.40
2018-07-31T09:11:23.780Z,3.40
2018-07-31T09:15:27.467Z,4.67
2018-07-31T09:19:30.996Z,4.60
2018-07-31T09:23:34.760Z,4.60
2018-07-31T09:27:38.427Z,6.87
2018-07-31T09:31:41.983Z,7.60
2018-07-31T09:35:45.884Z,7.77
2018-07-31T09:39:49.556Z,5.03
2018-07-31T09:43:53.075Z,5.40
2018-07-31T09:47:56.849Z,5.83
2018-07-31T09:52:00.697Z,6.20
2018-07-31T09:56:04.380Z,6.80
2018-07-31T10:00:07.904Z,6.07
2018-07-31T10:04:11.694Z,7.10
2018-07-31T10:08:20.765Z,8.13
2018-07-31T10:12:24.454Z,7.30
2018-07-31T10:16:27.963Z,6.17
2018-07-31T10:20:31.740Z,6.37
2018-07-31T10:24:35.446Z,6.97
2018-07-31T10:28:38.950Z,9.40
2018-07-31T10:32:42.720Z,9.80
2018-07-31T10:36:46.609Z,6.20
2018-07-31T10:40:50.251Z,11.83
2018-07-31T10:44:53.816Z,7.40
2018-07-31T10:48:57.553Z,8.03
2018-07-31T10:53:01.231Z,11.60
2018-07-31T10:57:04.741Z,11.90
2018-07-31T11:01:08.343Z,7.43
2018-07-31T11:05:12.076Z,7.70
2018-07-31T11:09:15.991Z,7.07
2018-07-31T11:13:20.067Z,7.20
2018-07-31T11:17:23.666Z,6.77
2018-07-31T11:21:27.400Z,6.63
2018-07-31T11:25:31.531Z,7.87
2018-07-31T11:29:35.214Z,7.83
2018-07-31T11:33:38.780Z,7.13
2018-07-31T11:37:42.296Z,7.10
2018-07-31T11:41:45.855Z,6.70
2018-07-31T11:45:49.604Z,6.73
2018-07-31T11:49:53.676Z,13.17
2018-07-31T11:53:57.545Z,13.00
2018-07-31T11:58:01.346Z,11.73
2018-07-31T12:02:04.863Z,15.03
2018-07-31T12:06:08.740Z,12.73
2018-07-31T12:10:12.387Z,12.60
2018-07-31T12:14:16.144Z,10.87
2018-07-31T12:18:19.665Z,9.23
2018-07-31T12:22:23.221Z,8.07
2018-07-31T12:26:26.975Z,6.37
2018-07-31T12:30:30.753Z,5.77
2018-07-31T12:34:34.280Z,6.57
2018-07-31T12:38:38.059Z,4.87
2018-07-31T12:42:41.928Z,4.93
2018-07-31T12:46:45.684Z,5.00
2018-07-31T12:50:49.192Z,3.87
2018-07-31T12:54:52.824Z,4.60
2018-07-31T12:58:57.071Z,3.40
2018-07-31T13:03:00.872Z,3.33
2018-07-31T13:07:04.736Z,7.83
2018-07-31T13:11:08.411Z,3.20
2018-07-31T13:15:12.343Z,3.30
2018-07-31T13:19:16.129Z,2.83
2018-07-31T13:23:19.978Z,5.13
2018-07-31T13:27:23.631Z,3.73
2018-07-31T13:31:27.143Z,2.50
2018-07-31T13:35:30.977Z,2.83
2018-07-31T13:39:34.571Z,6.43
2018-07-31T13:43:38.338Z,2.87
2018-07-31T13:47:41.811Z,1.90
2018-07-31T13:51:45.580Z,2.40
2018-07-31T13:55:49.329Z,2.33
2018-07-31T13:59:53.232Z,1.80
2018-07-31T14:03:56.852Z,3.53
2018-07-31T14:08:00.415Z,1.77
2018-07-31T14:12:04.153Z,2.40
2018-07-31T14:16:07.936Z,4.10
2018-07-31T14:20:11.455Z,1.97
2018-07-31T14:24:15.057Z,2.90
2018-07-31T14:28:18.518Z,1.80
2018-07-31T14:32:22.231Z,1.50
2018-07-31T14:36:25.899Z,1.90
2018-07-31T14:40:29.775Z,1.50
2018-07-31T14:44:33.640Z,2.63
2018-07-31T14:48:37.524Z,2.43
2018-07-31T14:52:41.156Z,1.90
2018-07-31T14:56:44.711Z,2.23
2018-07-31T15:00:48.244Z,2.00
2018-07-31T15:04:51.829Z,1.53
2018-07-31T15:08:55.340Z,2.10
2018-07-31T15:12:58.910Z,4.13
2018-07-31T15:17:02.978Z,2.43
2018-07-31T15:21:06.663Z,4.93
2018-07-31T15:25:10.168Z,4.90
2018-07-31T15:29:13.963Z,2.03
2018-07-31T15:33:17.923Z,1.57
2018-07-31T15:37:21.915Z,2.83
2018-07-31T15:41:25.555Z,2.77
2018-07-31T15:45:29.095Z,4.53
2018-07-31T15:49:33.024Z,2.20
2018-07-31T15:53:36.752Z,2.13
2018-07-31T15:57:46.707Z,2.50
2018-07-31T16:01:50.347Z,3.33
2018-07-31T16:05:53.886Z,4.00
2018-07-31T16:09:57.618Z,1.77
2018-07-31T16:14:01.542Z,2.40
2018-07-31T16:18:05.451Z,4.17
2018-07-31T16:22:08.971Z,2.53
2018-07-31T16:26:12.804Z,3.67
2018-07-31T16:30:17.215Z,1.57
2018-07-31T16:34:21.100Z,2.43
2018-07-31T16:38:24.755Z,4.00
2018-07-31T16:42:28.468Z,4.47
2018-07-31T16:46:32.724Z,1.93
2018-07-31T16:50:36.232Z,1.50
2018-07-31T16:54:40.126Z,3.10
2018-07-31T16:58:43.972Z,1.77
2018-07-31T17:02:47.735Z,1.30
2018-07-31T17:06:51.240Z,1.53
2018-07-31T17:10:54.874Z,1.40
2018-07-31T17:14:58.610Z,1.67
2018-07-31T17:19:02.283Z,1.37
2018-07-31T17:23:05.827Z,4.10
2018-07-31T17:27:09.376Z,2.40
2018-07-31T17:31:13.321Z,4.17
2018-07-31T17:35:17.040Z,2.40
2018-07-31T17:39:20.547Z,2.30
2018-07-31T17:43:24.296Z,4.50
2018-07-31T17:47:27.959Z,3.60
2018-07-31T17:51:32.487Z,3.23
2018-07-31T17:55:36.709Z,2.40
2018-07-31T17:59:40.372Z,3.27
2018-07-31T18:03:43.940Z,3.33
2018-07-31T18:07:47.435Z,3.03
2018-07-31T18:11:50.947Z,3.60
2018-07-31T18:15:54.710Z,2.10
2018-07-31T18:19:58.366Z,1.50
2018-07-31T18:24:01.931Z,3.53
2018-07-31T18:28:05.796Z,7.17
2018-07-31T18:32:09.942Z,7.83
2018-07-31T18:36:13.605Z,2.53
2018-07-31T18:40:17.175Z,4.90
2018-07-31T18:44:20.901Z,4.10
2018-07-31T18:48:24.548Z,1.43
2018-07-31T18:52:28.044Z,3.17
2018-07-31T18:56:31.951Z,2.40
2018-07-31T19:00:35.463Z,2.13
2018-07-31T19:04:39.238Z,1.83
2018-07-31T19:08:43.108Z,4.90
2018-07-31T19:12:46.898Z,4.07
2018-07-31T19:16:50.406Z,3.23
2018-07-31T19:20:53.936Z,3.30
2018-07-31T19:24:57.447Z,4.07
2018-07-31T19:29:01.081Z,2.73
2018-07-31T19:33:04.627Z,6.70
2018-07-31T19:37:08.457Z,3.63
2018-07-31T19:41:12.098Z,2.40
2018-07-31T19:45:15.771Z,2.80
2018-07-31T19:49:20.093Z,6.60
2018-07-31T19:53:23.773Z,5.17
2018-07-31T19:57:27.504Z,2.37
2018-07-31T20:01:31.057Z,5.03
2018-07-31T20:05:37.252Z,2.93
2018-07-31T20:09:40.977Z,5.70
2018-07-31T20:13:45.480Z,2.93
2018-07-31T20:17:49.316Z,2.93
2018-07-31T20:21:53.248Z,4.13
2018-07-31T20:25:56.762Z,6.20
2018-07-31T20:30:00.507Z,5.33
2018-07-31T20:34:04.029Z,3.03
2018-07-31T20:38:07.800Z,1.73
2018-07-31T20:42:11.660Z,2.73
2018-07-31T20:46:15.532Z,2.93
2018-07-31T20:50:19.173Z,3.10
2018-07-31T20:54:22.944Z,2.70
2018-07-31T20:58:27.416Z,2.70
2018-07-31T21:02:31.312Z,2.23
2018-07-31T21:06:34.956Z,4.37
2018-07-31T21:10:38.841Z,5.37
2018-07-31T21:14:42.696Z,4.03
2018-07-31T21:18:46.442Z,4.50
2018-07-31T21:22:50.140Z,5.10
2018-07-31T21:26:53.991Z,3.27
2018-07-31T21:30:57.857Z,2.77
2018-07-31T21:35:01.632Z,3.00
2018-07-31T21:39:07.271Z,6.33
2018-07-31T21:43:11.045Z,2.60
2018-07-31T21:47:14.755Z,4.03
2018-07-31T21:51:18.577Z,3.13
2018-07-31T21:55:22.216Z,3.80
2018-07-31T21:59:25.807Z,6.03
2018-07-31T22:03:29.520Z,3.33
2018-07-31T22:07:33.446Z,5.73
2018-07-31T22:11:37.852Z,5.70
2018-07-31T22:15:41.371Z,5.00
2018-07-31T22:19:44.888Z,3.80
2018-07-31T22:23:48.782Z,4.57
2018-07-31T22:27:52.462Z,4.97
2018-07-31T22:31:56.192Z,4.10
2018-07-31T22:35:59.826Z,4.13
2018-07-31T22:40:03.392Z,4.47
2018-07-31T22:44:07.120Z,4.60
2018-07-31T22:48:11.044Z,4.10
2018-07-31T22:52:14.716Z,3.83
2018-07-31T23:00:28.161Z,3.80
2018-07-31T23:04:31.803Z,3.00
2018-07-31T23:08:35.358Z,3.63
2018-07-31T23:12:39.098Z,5.47
2018-07-31T23:16:42.807Z,5.90
2018-07-31T23:20:46.609Z,6.50
2018-07-31T23:24:50.441Z,8.00
2018-07-31T23:28:53.959Z,7.50
2018-07-31T23:32:57.812Z,3.77
2018-07-31T23:37:01.680Z,4.40
2018-07-31T23:41:05.460Z,4.27
2018-07-31T23:45:08.975Z,6.03
2018-07-31T23:49:12.632Z,4.40
2018-07-31T23:53:16.152Z,4.17
2018-07-31T23:57:19.797Z,4.90
